Wildwood Lake, Indiana
Current Conditions -  °F | °C
As of 9:15 AM on Saturday 27 Dec 2014 (Local Time) from KHNB Reporting Station
Overcast Overcast  
Wind Chill: 40°   Ceiling: 800
Heat Index: 45°   Visibility: 5mi
Dew Point: 43°   Wind: 9mph
Humidity: 93%   Direction: 180°S
Pressure: 30.19"   Gusts: NA
Location:  38.5454°N, 86.4243°W
Report Text: KHNB 271415Z AUTO 18008KT 5SM OVC008 07/06 A3019 RMK AO1
Loading
Personal Weather Stations






























Interactive Weather Map New forecast layout! Learn more

10-Day Weather Forecast

Advertisements
Track Severe Weather on mobile